Time;durP1;ratioP1;P1;durP2;ratioP2;P2;SDS_P1;SDS_P2;PMS_P1;PMS_P2;Temp;Humidity;BMP_temperature;BMP_pressure;BME280_temperature;BME280_humidity;BME280_pressure;Samples;Min_cycle;Max_cycle;Signal;HPM_P1;HPM_P2
2022/06/15 00:00:41;;;;;;;8.20;4.33;;;16.40;99.90;;;;;;5038880;28;20805;-84
2022/06/15 00:03:07;;;;;;;4.57;3.37;;;16.60;99.90;;;;;;5040098;28;20458;-84
2022/06/15 00:05:33;;;;;;;5.40;4.40;;;16.90;99.90;;;;;;5055792;28;20436;-84
2022/06/15 00:07:58;;;;;;;5.40;3.57;;;17.10;99.90;;;;;;5056138;28;20432;-84
2022/06/15 00:10:24;;;;;;;7.73;5.73;;;17.20;99.90;;;;;;5040010;28;20254;-85
2022/06/15 00:12:50;;;;;;;13.83;6.40;;;17.10;99.90;;;;;;5053835;28;20911;-85
2022/06/15 00:15:16;;;;;;;8.17;6.50;;;;;;;;;;5040973;28;20185;-84
2022/06/15 00:17:42;;;;;;;10.10;6.37;;;;;;;;;;5051532;28;20278;-83
2022/06/15 00:20:08;;;;;;;14.80;7.00;;;16.10;99.90;;;;;;5055114;28;20448;-84
2022/06/15 00:22:34;;;;;;;12.60;6.50;;;16.10;99.90;;;;;;5055280;28;20425;-84
2022/06/15 00:24:59;;;;;;;12.40;6.90;;;16.00;99.90;;;;;;5054645;28;20430;-85
2022/06/15 00:27:25;;;;;;;15.00;7.03;;;15.80;99.90;;;;;;5056427;28;20187;-84
2022/06/15 00:29:50;;;;;;;10.60;6.60;;;15.70;99.90;;;;;;5060600;28;20185;-84
2022/06/15 00:32:16;;;;;;;10.43;7.40;;;15.70;99.90;;;;;;5058484;28;20185;-85
2022/06/15 00:34:42;;;;;;;10.67;6.97;;;15.60;99.90;;;;;;5056320;28;20177;-84
2022/06/15 00:37:08;;;;;;;8.37;6.60;;;15.50;99.90;;;;;;5054924;28;20408;-85
2022/06/15 00:39:34;;;;;;;7.03;6.20;;;15.50;99.90;;;;;;5057537;28;20407;-85
2022/06/15 00:42:01;;;;;;;8.87;6.50;;;15.40;99.90;;;;;;5055112;28;20672;-84
2022/06/15 00:44:34;;;;;;;11.77;6.60;;;15.30;99.90;;;;;;5056312;28;21009;-83
2022/06/15 00:47:11;;;;;;;9.90;7.57;;;15.20;99.90;;;;;;5056038;28;20470;-86
2022/06/15 00:49:57;;;;;;;9.07;6.03;;;15.10;99.90;;;;;;5053565;28;20427;-85
2022/06/15 00:52:33;;;;;;;6.30;5.70;;;15.10;99.90;;;;;;5054242;28;20553;-84
2022/06/15 00:55:00;;;;;;;11.57;6.37;;;15.10;99.90;;;;;;5054577;28;20431;-83
2022/06/15 00:57:27;;;;;;;8.95;5.57;;;15.00;99.90;;;;;;5056503;28;20409;-84
2022/06/15 00:59:56;;;;;;;6.60;5.90;;;14.80;99.90;;;;;;5055122;28;20181;-84
2022/06/15 01:02:22;;;;;;;9.00;6.40;;;14.80;99.90;;;;;;5052071;28;20184;-83
2022/06/15 01:04:54;;;;;;;12.03;6.10;;;14.70;99.90;;;;;;5053034;28;20784;-83
2022/06/15 01:07:44;;;;;;;12.23;6.57;;;14.60;99.90;;;;;;5056181;28;20777;-84
2022/06/15 01:10:38;;;;;;;6.82;5.70;;;14.50;99.90;;;;;;5053263;28;20288;-84
2022/06/15 01:13:37;;;;;;;9.35;5.75;;;14.50;99.90;;;;;;5055810;28;20322;-83
2022/06/15 01:16:17;;;;;;;14.70;6.83;;;14.40;99.90;;;;;;5056198;28;20264;-83
2022/06/15 01:18:50;;;;;;;7.57;4.97;;;14.40;99.90;;;;;;5051809;28;20428;-83
2022/06/15 01:21:29;;;;;;;5.57;5.00;;;14.40;99.90;;;;;;5056292;28;20456;-84
2022/06/15 01:24:14;;;;;;;10.38;5.65;;;14.40;99.90;;;;;;5039992;28;20180;-83
2022/06/15 01:27:02;;;;;;;7.25;5.78;;;14.40;99.90;;;;;;5040750;28;20423;-83
2022/06/15 01:30:14;;;;;;;9.13;5.07;;;14.30;99.90;;;;;;5058753;28;20200;-82
2022/06/15 01:32:54;;;;;;;14.80;5.33;;;14.30;99.90;;;;;;5072956;23;20311;-85
2022/06/15 01:35:29;;;;;;;13.07;5.88;;;14.20;99.90;;;;;;5074347;28;20529;-84
2022/06/15 01:38:22;;;;;;;6.50;5.30;;;14.20;99.90;;;;;;5063253;28;20186;-85
2022/06/15 01:41:03;;;;;;;8.90;5.55;;;14.10;99.90;;;;;;5073491;28;20658;-85
2022/06/15 01:43:35;;;;;;;6.40;4.82;;;14.10;99.90;;;;;;5073073;28;20198;-84
2022/06/15 01:46:02;;;;;;;7.50;4.63;;;14.10;99.90;;;;;;5074101;28;20160;-85
2022/06/15 01:48:30;;;;;;;7.93;5.78;;;14.00;99.90;;;;;;5071321;28;20176;-83
2022/06/15 01:51:00;;;;;;;8.80;5.45;;;14.00;99.90;;;;;;5072473;28;20196;-85
2022/06/15 01:53:32;;;;;;;9.43;5.35;;;14.00;99.90;;;;;;5072796;28;20173;-84
2022/06/15 01:56:03;;;;;;;8.95;5.78;;;14.00;99.90;;;;;;5073398;28;20236;-84
2022/06/15 01:58:33;;;;;;;8.50;5.00;;;14.00;99.90;;;;;;5072929;28;20189;-85
2022/06/15 02:01:25;;;;;;;5.85;4.70;;;14.00;99.90;;;;;;5071690;28;20195;-85
2022/06/15 02:04:00;;;;;;;7.25;5.63;;;14.00;99.90;;;;;;5048896;28;20456;-85
2022/06/15 02:06:47;;;;;;;10.07;4.80;;;14.00;99.90;;;;;;5071126;28;20249;-85
2022/06/15 02:09:19;;;;;;;8.43;4.73;;;14.00;99.90;;;;;;5072607;28;20180;-85
2022/06/15 02:11:45;;;;;;;7.50;4.70;;;14.00;99.90;;;;;;5074898;28;20486;-85
2022/06/15 02:14:22;;;;;;;8.43;4.70;;;14.00;99.90;;;;;;5073207;28;20201;-83
2022/06/15 02:17:01;;;;;;;11.63;5.40;;;14.00;99.90;;;;;;5073048;28;20310;-85
2022/06/15 02:19:32;;;;;;;7.00;5.10;;;14.00;99.90;;;;;;5072352;28;20501;-84
2022/06/15 02:22:08;;;;;;;10.05;5.57;;;13.90;99.90;;;;;;5073995;28;20267;-85
2022/06/15 02:24:36;;;;;;;8.68;5.25;;;14.00;99.90;;;;;;5070078;28;20203;-84
2022/06/15 02:27:04;;;;;;;10.23;5.97;;;15.30;99.90;;;;;;5084399;28;20606;-85
2022/06/15 02:29:32;;;;;;;8.77;5.82;;;13.90;99.90;;;;;;5069604;28;20180;-85
2022/06/15 02:31:58;;;;;;;8.43;5.15;;;13.90;99.90;;;;;;5071377;28;20216;-83
2022/06/15 02:34:27;;;;;;;5.80;4.67;;;13.90;99.90;;;;;;5072953;28;20806;-85
2022/06/15 02:36:53;;;;;;;8.60;6.60;;;;;;;;;;5073382;28;20169;-84
2022/06/15 02:39:19;;;;;;;8.80;5.47;;;13.90;99.90;;;;;;5088844;28;20590;-84
2022/06/15 02:41:45;;;;;;;9.95;5.65;;;15.50;99.90;;;;;;5072423;28;20222;-85
2022/06/15 02:44:16;;;;;;;9.43;5.80;;;13.80;99.90;;;;;;5072432;28;20212;-85
2022/06/15 02:46:46;;;;;;;11.45;6.03;;;13.70;99.90;;;;;;5073025;28;20317;-85
2022/06/15 02:49:13;;;;;;;6.38;5.00;;;13.70;99.90;;;;;;5071236;28;20191;-85
2022/06/15 02:51:46;;;;;;;8.25;4.65;;;13.70;99.90;;;;;;5070332;28;20294;-85
2022/06/15 02:54:24;;;;;;;9.32;5.38;;;13.50;99.90;;;;;;5071504;28;20200;-84
2022/06/15 02:56:50;;;;;;;6.80;5.15;;;13.50;99.90;;;;;;5072451;28;20198;-84
2022/06/15 02:59:16;;;;;;;12.73;6.20;;;13.40;99.90;;;;;;5083833;28;20253;-84
2022/06/15 03:01:42;;;;;;;9.60;5.10;;;13.40;99.90;;;;;;5068705;28;20456;-85
2022/06/15 03:04:07;;;;;;;7.03;5.30;;;13.40;99.90;;;;;;5071748;28;20435;-84
2022/06/15 03:06:33;;;;;;;10.33;5.33;;;;;;;;;;5072058;28;20242;-84
2022/06/15 03:08:59;;;;;;;14.43;6.60;;;13.40;99.90;;;;;;5075644;28;20210;-85
2022/06/15 03:11:26;;;;;;;9.17;5.53;;;14.60;99.90;;;;;;5090085;28;20494;-85
2022/06/15 03:13:53;;;;;;;10.23;5.57;;;13.50;99.90;;;;;;5072663;28;20470;-84
2022/06/15 03:16:19;;;;;;;13.55;6.50;;;;;;;;;;5075919;28;20191;-85
2022/06/15 03:18:45;;;;;;;10.07;6.20;;;13.50;99.90;;;;;;5073883;28;20544;-84
2022/06/15 03:21:11;;;;;;;9.65;6.28;;;13.50;99.90;;;;;;5059799;28;20958;-85
2022/06/15 03:23:37;;;;;;;7.47;5.57;;;13.40;99.90;;;;;;5074045;28;20196;-84
2022/06/15 03:26:03;;;;;;;9.97;6.57;;;13.50;99.90;;;;;;5074745;28;20422;-85
2022/06/15 03:28:29;;;;;;;11.02;6.13;;;13.50;99.90;;;;;;5074574;28;20430;-84
2022/06/15 03:30:55;;;;;;;11.50;6.50;;;13.50;99.90;;;;;;5084159;28;20318;-84
2022/06/15 03:33:20;;;;;;;11.93;7.77;;;13.50;99.90;;;;;;5074752;28;20184;-84
2022/06/15 03:35:47;;;;;;;13.17;6.90;;;13.40;99.90;;;;;;5073911;28;20180;-85
2022/06/15 03:38:13;;;;;;;8.90;6.28;;;13.40;99.90;;;;;;5076186;28;20188;-85
2022/06/15 03:40:41;;;;;;;12.75;7.47;;;13.20;99.90;;;;;;5085671;28;20208;-84
2022/06/15 03:43:07;;;;;;;7.30;6.10;;;13.10;99.90;;;;;;5077244;28;20641;-86
2022/06/15 03:45:33;;;;;;;12.67;7.20;;;13.10;99.90;;;;;;5076814;28;20218;-84
2022/06/15 03:47:59;;;;;;;11.48;5.97;;;13.10;99.90;;;;;;5075609;28;20946;-84
2022/06/15 03:50:27;;;;;;;8.57;5.88;;;13.10;99.90;;;;;;5075213;28;20216;-84
2022/06/15 03:52:53;;;;;;;10.40;5.75;;;13.10;99.90;;;;;;5083132;28;20200;-84
2022/06/15 03:55:20;;;;;;;10.10;5.63;;;13.20;99.90;;;;;;5080194;28;20215;-85
2022/06/15 03:57:46;;;;;;;11.23;6.35;;;14.10;99.90;;;;;;5079732;28;20177;-85
2022/06/15 04:00:17;;;;;;;11.70;6.37;;;13.30;99.90;;;;;;5090319;28;20240;-85
2022/06/15 04:02:43;;;;;;;8.85;6.47;;;13.40;99.90;;;;;;5076346;28;20479;-85
2022/06/15 04:05:16;;;;;;;7.27;6.53;;;13.50;99.90;;;;;;5076018;28;20287;-85
2022/06/15 04:10:26;;;;;;;9.20;6.72;;;13.50;99.90;;;;;;5077977;28;20222;-85
2022/06/15 04:12:51;;;;;;;11.83;7.00;;;13.60;99.90;;;;;;5075804;28;20660;-84
2022/06/15 04:15:17;;;;;;;14.77;7.80;;;13.70;99.90;;;;;;5075755;28;20293;-85
2022/06/15 04:17:44;;;;;;;9.03;6.40;;;14.70;99.90;;;;;;5075498;28;20311;-85
2022/06/15 04:23:06;;;;;;;8.20;6.67;;;20.20;99.90;;;;;;5076348;28;20491;-84
2022/06/15 04:25:36;;;;;;;6.87;4.83;;;23.20;99.90;;;;;;5074486;28;20457;-83
2022/06/15 04:28:02;;;;;;;10.77;5.23;;;;;;;;;;5074086;28;21161;-84
2022/06/15 04:30:28;;;;;;;6.60;4.87;;;;;;;;;;5073369;28;20470;-82
2022/06/15 04:32:54;;;;;;;13.53;5.40;;;;;;;;;;5074195;28;20440;-84
2022/06/15 04:35:20;;;;;;;6.80;4.80;;;;;;;;;;5075020;28;20823;-83
2022/06/15 04:37:46;;;;;;;7.27;4.00;;;;;;;;;;5074879;28;20423;-83
2022/06/15 04:40:12;;;;;;;13.93;5.13;;;;;;;;;;5076190;28;20452;-83
2022/06/15 04:42:39;;;;;;;10.70;5.40;;;32.50;67.40;;;;;;5071950;28;20438;-85
2022/06/15 04:45:05;;;;;;;6.27;4.60;;;32.50;73.80;;;;;;5061990;28;20962;-84
2022/06/15 04:47:31;;;;;;;5.43;4.90;;;;;;;;;;5074855;28;20437;-84
2022/06/15 04:49:57;;;;;;;6.40;5.00;;;;;;;;;;5073013;28;20993;-85
2022/06/15 04:52:23;;;;;;;9.70;5.30;;;;;;;;;;5071352;28;20965;-83
2022/06/15 04:54:49;;;;;;;5.37;4.20;;;;;;;;;;5072673;28;21031;-84
2022/06/15 04:57:15;;;;;;;6.83;5.37;;;;;;;;;;5081175;28;20404;-84
2022/06/15 04:59:42;;;;;;;8.03;6.10;;;;;;;;;;5079557;28;20437;-84
2022/06/15 05:02:08;;;;;;;7.10;6.20;;;;;;;;;;5076693;28;20427;-85
2022/06/15 05:04:34;;;;;;;8.87;8.07;;;;;;;;;;5074838;28;20545;-85
2022/06/15 05:07:00;;;;;;;8.93;8.20;;;;;;;;;;5076234;28;20437;-85
2022/06/15 05:09:26;;;;;;;10.67;9.87;;;;;;;;;;5077028;28;20409;-84
2022/06/15 05:11:51;;;;;;;12.93;10.70;;;;;;;;;;5082682;28;21825;-84
2022/06/15 05:14:17;;;;;;;11.97;10.97;;;;;;;;;;5080464;28;20450;-84
2022/06/15 05:16:44;;;;;;;13.03;10.07;;;;;;;;;;5074882;28;20488;-85
2022/06/15 05:19:10;;;;;;;11.90;10.90;;;;;;;;;;5075369;28;20435;-84
2022/06/15 05:21:43;;;;;;;12.73;11.50;;;42.20;36.40;;;;;;5074368;28;20431;-84
2022/06/15 05:24:09;;;;;;;12.60;11.47;;;;;;;;;;5072813;28;21243;-85
2022/06/15 05:26:36;;;;;;;14.37;13.17;;;;;;;;;;5072881;28;20794;-85
2022/06/15 05:29:02;;;;;;;13.50;12.40;;;;;;;;;;5071542;28;20448;-84
2022/06/15 05:31:28;;;;;;;19.17;14.40;;;;;;;;;;5071204;28;20507;-84
2022/06/15 05:33:55;;;;;;;15.53;14.30;;;40.60;34.70;;;;;;5072052;28;20962;-84
2022/06/15 05:36:27;;;;;;;15.03;13.70;;;40.20;35.50;;;;;;5073895;28;20439;-84
2022/06/15 05:38:54;;;;;;;12.47;11.77;;;;;;;;;;5072797;28;20417;-84
2022/06/15 05:41:19;;;;;;;14.87;12.30;;;40.50;50.60;;;;;;5071541;28;20447;-84
2022/06/15 05:43:47;;;;;;;14.30;13.10;;;;;;;;;;5067927;28;20923;-86
2022/06/15 05:46:24;;;;;;;14.53;13.13;;;38.20;37.30;;;;;;5071039;28;20548;-84
2022/06/15 05:48:50;;;;;;;12.90;11.57;;;;;;;;;;5068751;28;20437;-85
2022/06/15 05:51:16;;;;;;;13.80;12.47;;;;;;;;;;5069197;28;21219;-86
2022/06/15 05:53:42;;;;;;;14.17;12.93;;;;;;;;;;5067039;28;20442;-87
2022/06/15 05:56:08;;;;;;;14.30;13.37;;;40.60;37.70;;;;;;5068857;28;20180;-86
2022/06/15 05:58:34;;;;;;;14.30;13.30;;;;;;;;;;5068176;28;20202;-86
2022/06/15 06:01:18;;;;;;;14.17;13.10;;;40.80;51.30;;;;;;5065472;28;20222;-85
2022/06/15 06:03:44;;;;;;;14.63;13.53;;;;;;;;;;5069961;28;20450;-85
2022/06/15 06:06:10;;;;;;;15.50;14.37;;;;;;;;;;5068692;28;20422;-86
2022/06/15 06:08:36;;;;;;;15.33;13.97;;;;;;;;;;5070311;28;20421;-88
2022/06/15 06:11:02;;;;;;;14.27;13.47;;;;;;;;;;5068631;28;20458;-85
2022/06/15 06:13:29;;;;;;;14.60;13.80;;;;;;;;;;5067838;28;21387;-86
2022/06/15 06:15:56;;;;;;;13.83;13.03;;;41.70;37.60;;;;;;5068942;28;20445;-86
2022/06/15 06:18:22;;;;;;;14.80;13.80;;;41.10;30.00;;;;;;5069895;28;20414;-86
2022/06/15 06:20:48;;;;;;;14.43;13.63;;;;;;;;;;5067634;28;20442;-85
2022/06/15 06:23:14;;;;;;;14.07;13.20;;;;;;;;;;5069732;28;20405;-85
2022/06/15 06:25:46;;;;;;;13.87;12.73;;;39.90;31.60;;;;;;5067953;28;20498;-86
2022/06/15 06:28:25;;;;;;;14.20;13.07;;;38.90;32.30;;;;;;5066610;28;20962;-85
2022/06/15 06:30:51;;;;;;;12.47;11.60;;;38.30;38.40;;;;;;5052656;28;20480;-85
2022/06/15 06:33:17;;;;;;;13.93;12.77;;;37.90;35.60;;;;;;5068149;28;20431;-86
2022/06/15 06:35:43;;;;;;;12.00;11.20;;;38.80;42.30;;;;;;5065702;28;20190;-86
2022/06/15 06:38:10;;;;;;;12.70;11.50;;;39.50;33.70;;;;;;5069837;28;20415;-85
2022/06/15 06:40:36;;;;;;;12.37;11.53;;;;;;;;;;5071915;28;20647;-85
2022/06/15 06:43:02;;;;;;;13.63;12.33;;;39.40;35.10;;;;;;5073284;28;20439;-85
2022/06/15 06:45:28;;;;;;;12.33;11.53;;;;;;;;;;5070654;28;20958;-85
2022/06/15 06:47:53;;;;;;;12.83;12.03;;;;;;;;;;5071810;28;20194;-85
2022/06/15 06:50:20;;;;;;;12.20;11.20;;;;;;;;;;5071098;28;20469;-85
2022/06/15 06:52:46;;;;;;;13.10;11.77;;;;;;;;;;5071329;28;20421;-85
2022/06/15 06:55:11;;;;;;;11.77;11.00;;;;;;;;;;5070875;28;20465;-84
2022/06/15 06:57:37;;;;;;;12.83;11.83;;;;;;;;;;5069021;28;20777;-84
2022/06/15 07:00:03;;;;;;;12.47;11.53;;;37.90;39.60;;;;;;5069096;28;21112;-85
2022/06/15 07:02:29;;;;;;;11.70;10.93;;;;;;;;;;5071728;28;20829;-85
2022/06/15 07:04:55;;;;;;;11.90;10.90;;;37.30;42.60;;;;;;5069714;28;20554;-84
2022/06/15 07:07:21;;;;;;;12.90;11.70;;;;;;;;;;5070129;28;20554;-85
2022/06/15 07:09:46;;;;;;;12.80;11.77;;;37.70;39.60;;;;;;5070658;28;20179;-85
2022/06/15 07:12:13;;;;;;;11.30;10.50;;;;;;;;;;5071105;28;20541;-84
2022/06/15 07:14:39;;;;;;;12.83;11.77;;;;;;;;;;5067009;28;20264;-85
2022/06/15 07:17:04;;;;;;;11.87;11.13;;;;;;;;;;5068462;28;20425;-85
2022/06/15 07:19:30;;;;;;;12.23;11.50;;;;;;;;;;5069099;28;20432;-84
2022/06/15 07:21:56;;;;;;;12.40;11.70;;;;;;;;;;5067756;28;20437;-85
2022/06/15 07:24:22;;;;;;;13.60;12.80;;;;;;;;;;5069457;28;20458;-84
2022/06/15 07:29:22;;;;;;;16.30;13.50;;;41.60;31.40;;;;;;5006952;28;20535;-87
2022/06/15 07:31:51;;;;;;;14.43;13.43;;;41.20;31.70;;;;;;5006658;28;20461;-90
2022/06/15 07:34:17;;;;;;;14.53;13.80;;;;;;;;;;5009212;28;20421;-89
2022/06/15 07:36:46;;;;;;;14.93;13.80;;;41.30;31.60;;;;;;5017286;28;20476;-88
2022/06/15 07:39:17;;;;;;;15.73;14.47;;;41.50;31.10;;;;;;4982422;28;20447;-87
2022/06/15 07:41:44;;;;;;;16.13;15.00;;;;;;;;;;4980017;28;20438;-86
2022/06/15 07:44:10;;;;;;;15.23;14.27;;;;;;;;;;4976317;28;20582;-87
2022/06/15 07:46:36;;;;;;;16.97;15.63;;;;;;;;;;4976726;28;20522;-88
2022/06/15 07:51:54;;;;;;;15.30;14.40;;;42.10;30.50;;;;;;4979893;28;21121;-86
2022/06/15 07:54:21;;;;;;;15.77;14.87;;;41.50;29.60;;;;;;4974058;28;20551;-86
2022/06/15 07:56:47;;;;;;;14.90;14.20;;;;;;;;;;4971279;28;20504;-88
2022/06/15 07:59:14;;;;;;;15.70;14.47;;;41.70;30.30;;;;;;4980563;28;20441;-88
2022/06/15 08:01:41;;;;;;;16.20;15.20;;;41.10;31.30;;;;;;4980168;28;21236;-88
2022/06/15 08:04:07;;;;;;;15.70;14.90;;;;;;;;;;4980443;28;20422;-90
2022/06/15 08:06:35;;;;;;;15.30;14.47;;;40.40;31.30;;;;;;4982896;28;20510;-87
2022/06/15 08:09:01;;;;;;;14.70;13.73;;;;;;;;;;4983388;28;20446;-87
2022/06/15 08:11:28;;;;;;;17.00;16.07;;;;;;;;;;4983636;28;20489;-88
2022/06/15 08:13:55;;;;;;;16.60;15.60;;;;;;;;;;4981849;28;20426;-88
2022/06/15 08:16:21;;;;;;;15.20;14.40;;;;;;;;;;4981299;28;20407;-85
2022/06/15 08:18:52;;;;;;;15.43;14.00;;;39.40;33.20;;;;;;4978607;28;20453;-88
2022/06/15 08:21:25;;;;;;;15.10;14.10;;;39.50;46.60;;;;;;4981527;28;20453;-86
2022/06/15 08:23:53;;;;;;;15.93;14.73;;;39.50;33.20;;;;;;4982307;28;20433;-87
2022/06/15 08:26:23;;;;;;;15.97;14.77;;;40.30;33.20;;;;;;4982632;28;20493;-86
2022/06/15 08:28:54;;;;;;;15.30;14.17;;;41.20;31.50;;;;;;4983415;28;21062;-87
2022/06/15 08:31:20;;;;;;;15.80;14.70;;;;;;;;;;4972678;28;20455;-88
2022/06/15 08:33:46;;;;;;;14.03;12.93;;;;;;;;;;4982658;28;20976;-86
2022/06/15 08:36:13;;;;;;;14.93;13.93;;;;;;;;;;4980935;28;20455;-87
2022/06/15 08:38:40;;;;;;;16.27;15.17;;;40.40;31.70;;;;;;4982616;28;20543;-88
2022/06/15 08:41:21;;;;;;;16.50;15.50;;;40.10;32.50;;;;;;4975739;28;20938;-90
2022/06/15 08:44:01;;;;;;;17.40;16.60;;;39.20;32.80;;;;;;4984722;28;20473;-89
2022/06/15 08:46:54;;;;;;;15.50;14.50;;;39.30;32.80;;;;;;4982922;28;20424;-86
2022/06/15 08:49:48;;;;;;;15.40;14.43;;;39.10;33.00;;;;;;4974901;28;20431;-87
2022/06/15 08:52:24;;;;;;;15.77;14.70;;;39.10;42.90;;;;;;4982000;28;22332;-86
2022/06/15 08:54:58;;;;;;;15.40;14.40;;;39.10;45.30;;;;;;4974646;28;20811;-87
2022/06/15 08:57:31;;;;;;;15.60;14.40;;;39.30;42.30;;;;;;4982964;28;20453;-87
2022/06/15 09:00:17;;;;;;;16.33;15.30;;;39.70;46.40;;;;;;4983171;28;20456;-88
2022/06/15 09:03:17;;;;;;;16.93;15.87;;;39.70;39.70;;;;;;4982688;28;20430;-88
2022/06/15 09:06:17;;;;;;;15.87;14.93;;;40.50;32.90;;;;;;4979596;28;20466;-87
2022/06/15 09:09:20;;;;;;;16.23;15.10;;;41.30;32.20;;;;;;4981956;28;20497;-88
2022/06/15 09:11:52;;;;;;;16.40;15.40;;;42.30;51.80;;;;;;4983768;28;20454;-87
2022/06/15 09:14:38;;;;;;;18.33;17.10;;;42.80;32.60;;;;;;4980368;28;20553;-89
2022/06/15 09:17:16;;;;;;;18.33;16.80;;;42.70;29.90;;;;;;4969850;28;20423;-88
2022/06/15 09:19:56;;;;;;;23.63;22.43;;;43.70;29.30;;;;;;4972602;28;20429;-87
2022/06/15 09:22:25;;;;;;;20.80;19.80;;;44.00;28.90;;;;;;4982161;28;20433;-87
2022/06/15 09:24:56;;;;;;;20.67;19.27;;;44.30;28.90;;;;;;4983901;28;20456;-90
2022/06/15 09:27:47;;;;;;;20.33;19.20;;;43.90;46.20;;;;;;4977787;28;20501;-89
2022/06/15 09:30:31;;;;;;;21.10;20.07;;;43.40;29.50;;;;;;4972181;28;20938;-86
2022/06/15 09:33:06;;;;;;;15.57;14.47;;;40.90;31.90;;;;;;4979810;28;20458;-89
2022/06/15 09:35:44;;;;;;;17.33;16.20;;;39.50;32.60;;;;;;4977816;28;20442;-87
2022/06/15 09:38:12;;;;;;;14.83;14.03;;;39.20;33.80;;;;;;4973414;28;20470;-87
2022/06/15 09:40:55;;;;;;;20.30;18.60;;;38.40;41.90;;;;;;4987401;28;20792;-87
2022/06/15 09:43:41;;;;;;;16.23;15.13;;;38.40;50.30;;;;;;4982413;28;20457;-86
2022/06/15 09:46:39;;;;;;;18.10;16.77;;;38.40;50.70;;;;;;5001795;28;20433;-92
2022/06/15 09:49:28;;;;;;;17.37;16.40;;;38.10;47.30;;;;;;4979432;28;20461;-88
2022/06/15 09:52:02;;;;;;;16.90;15.90;;;37.60;34.20;;;;;;4983132;28;20459;-89
2022/06/15 09:54:53;;;;;;;16.43;15.53;;;38.80;52.10;;;;;;4985244;28;20403;-87
2022/06/15 09:57:20;;;;;;;17.53;16.23;;;37.40;34.60;;;;;;4981584;28;20467;-87
2022/06/15 09:59:46;;;;;;;17.13;15.93;;;36.90;35.40;;;;;;4974716;28;20415;-87
2022/06/15 10:02:29;;;;;;;15.70;14.77;;;37.00;37.20;;;;;;4973479;28;20988;-87
2022/06/15 10:04:57;;;;;;;15.23;14.33;;;37.70;34.80;;;;;;4981037;28;20418;-88
2022/06/15 10:07:34;;;;;;;16.40;15.40;;;37.70;39.10;;;;;;4973060;28;20446;-89
2022/06/15 10:10:21;;;;;;;16.20;14.93;;;37.40;52.10;;;;;;4981064;28;20418;-87
2022/06/15 10:12:57;;;;;;;16.10;15.10;;;36.10;42.90;;;;;;4984628;28;20472;-88
2022/06/15 10:15:34;;;;;;;15.10;14.13;;;36.00;38.30;;;;;;4982904;28;20427;-87
2022/06/15 10:18:17;;;;;;;15.17;14.27;;;36.60;48.40;;;;;;4984977;28;20432;-88
2022/06/15 10:21:04;;;;;;;15.87;14.60;;;37.80;53.70;;;;;;4984560;28;21003;-88
2022/06/15 10:23:58;;;;;;;16.10;14.80;;;37.60;44.80;;;;;;4976030;28;20433;-88
2022/06/15 10:26:26;;;;;;;14.23;13.43;;;37.60;47.10;;;;;;4979982;28;20422;-88
2022/06/15 10:28:52;;;;;;;15.73;14.83;;;;;;;;;;4980785;28;20485;-88
2022/06/15 10:31:32;;;;;;;16.17;15.07;;;35.30;37.60;;;;;;4982513;28;20973;-90
2022/06/15 10:34:16;;;;;;;15.73;14.60;;;35.90;41.00;;;;;;4973074;28;20456;-89
2022/06/15 10:36:42;;;;;;;13.33;12.53;;;;;;;;;;4982725;28;20509;-89
2022/06/15 10:39:37;;;;;;;13.30;12.60;;;32.20;41.30;;;;;;4980889;28;20899;-88
2022/06/15 10:42:09;;;;;;;11.33;10.57;;;32.70;43.30;;;;;;4972438;28;20442;-89
2022/06/15 10:44:39;;;;;;;11.73;10.60;;;30.10;44.70;;;;;;4982743;28;20444;-87
2022/06/15 10:47:40;;;;;;;10.13;9.10;;;29.90;46.00;;;;;;4984094;28;20418;-86
2022/06/15 10:50:17;;;;;;;11.53;9.30;;;29.70;47.10;;;;;;4980701;28;20465;-86
2022/06/15 10:52:50;;;;;;;8.40;7.73;;;29.60;46.90;;;;;;4974132;28;20433;-87
2022/06/15 11:03:41;;;;;;;8.57;7.60;;;29.30;50.70;;;;;;4986496;28;20405;-86
2022/06/15 11:06:08;;;;;;;7.60;6.07;;;;;;;;;;4985368;28;20439;-86
2022/06/15 11:08:35;;;;;;;7.47;6.53;;;29.20;50.50;;;;;;4983241;28;20342;-87
2022/06/15 11:11:23;;;;;;;6.67;6.07;;;29.20;50.20;;;;;;4974095;28;20457;-88
2022/06/15 11:14:02;;;;;;;7.93;7.20;;;29.50;48.90;;;;;;4982658;28;20430;-86
2022/06/15 11:19:20;;;;;;;7.03;6.43;;;29.50;48.60;;;;;;4984498;28;20417;-86
2022/06/15 11:22:00;;;;;;;7.03;6.30;;;29.00;48.70;;;;;;4976449;28;20502;-87
2022/06/15 11:24:52;;;;;;;7.07;6.20;;;29.00;49.30;;;;;;4976747;28;20429;-88
2022/06/15 11:27:37;;;;;;;7.10;6.40;;;29.20;48.20;;;;;;4985404;28;20458;-88
2022/06/15 11:30:21;;;;;;;6.67;6.17;;;29.40;49.70;;;;;;4979524;28;20449;-87
2022/06/15 11:33:02;;;;;;;6.47;5.97;;;29.30;48.90;;;;;;4984583;28;20411;-89
2022/06/15 11:35:38;;;;;;;6.63;5.93;;;29.50;50.70;;;;;;4991335;28;20414;-87
2022/06/15 11:38:34;;;;;;;6.43;5.93;;;29.50;49.50;;;;;;4983198;28;20441;-88
2022/06/15 11:41:19;;;;;;;8.30;6.37;;;29.40;48.10;;;;;;4991426;28;20905;-89
2022/06/15 11:43:47;;;;;;;6.17;5.70;;;29.60;47.70;;;;;;4991984;28;20421;-88
2022/06/15 11:46:44;;;;;;;6.50;5.90;;;29.60;48.20;;;;;;4975658;28;20426;-88
2022/06/15 11:49:25;;;;;;;8.00;6.20;;;29.70;48.30;;;;;;4986853;28;20524;-87
2022/06/15 11:52:13;;;;;;;6.60;6.10;;;29.70;49.10;;;;;;4989310;28;20448;-88
2022/06/15 11:55:03;;;;;;;7.73;6.67;;;29.40;47.70;;;;;;4985443;28;20493;-89
2022/06/15 11:57:50;;;;;;;6.60;6.10;;;29.40;47.80;;;;;;4986856;28;20548;-91
2022/06/15 12:00:51;;;;;;;6.33;5.80;;;29.30;47.00;;;;;;4991706;28;20522;-89
2022/06/15 12:03:38;;;;;;;8.93;5.30;;;29.70;47.80;;;;;;4971611;28;20464;-89
2022/06/15 12:06:21;;;;;;;6.60;6.00;;;29.80;47.00;;;;;;4985334;28;20582;-88
2022/06/15 12:08:54;;;;;;;5.80;5.40;;;30.00;46.00;;;;;;4982446;28;20978;-88
2022/06/15 12:14:25;;;;;;;6.87;6.23;;;30.00;46.30;;;;;;4983262;28;20441;-87
2022/06/15 12:16:58;;;;;;;6.97;6.30;;;29.90;46.90;;;;;;4983909;28;20489;-88
2022/06/15 12:20:03;;;;;;;6.60;6.10;;;29.80;44.20;;;;;;4983732;28;20449;-89
2022/06/15 12:22:53;;;;;;;7.53;6.87;;;30.10;44.20;;;;;;4976116;28;20435;-86
2022/06/15 12:25:47;;;;;;;7.67;6.90;;;30.10;43.90;;;;;;4984566;28;20518;-86
2022/06/15 12:28:27;;;;;;;6.43;5.93;;;29.90;42.20;;;;;;4985279;28;20463;-87
2022/06/15 12:31:11;;;;;;;6.80;6.40;;;29.90;42.60;;;;;;4987298;28;20458;-87
2022/06/15 12:33:55;;;;;;;7.80;7.20;;;30.10;41.70;;;;;;4978270;28;20435;-89
2022/06/15 12:36:31;;;;;;;6.83;6.40;;;30.10;43.10;;;;;;4986821;28;20786;-87
2022/06/15 12:39:24;;;;;;;7.07;6.57;;;30.20;44.50;;;;;;4987050;28;20521;-87
2022/06/15 12:44:51;;;;;;;6.77;6.43;;;30.50;42.00;;;;;;4985196;28;20781;-87
2022/06/15 12:47:18;;;;;;;7.97;7.37;;;30.80;41.50;;;;;;4981091;28;20462;-87
2022/06/15 12:50:15;;;;;;;6.97;6.47;;;31.10;47.30;;;;;;4987271;28;20443;-88
2022/06/15 12:52:59;;;;;;;7.50;6.90;;;30.30;46.70;;;;;;4988729;28;20446;-89
2022/06/15 12:55:46;;;;;;;7.10;6.47;;;30.20;44.60;;;;;;4983750;28;20517;-89
2022/06/15 12:58:29;;;;;;;7.33;6.83;;;30.10;41.80;;;;;;4985258;28;20481;-86
2022/06/15 13:01:19;;;;;;;6.97;6.47;;;30.00;43.20;;;;;;4983672;28;20402;-88
2022/06/15 13:04:04;;;;;;;7.70;7.10;;;30.00;43.50;;;;;;4978526;28;20501;-88
2022/06/15 13:06:35;;;;;;;7.00;6.40;;;29.90;43.20;;;;;;4984475;28;20422;-88
2022/06/15 13:09:15;;;;;;;10.83;6.90;;;30.10;46.80;;;;;;4983090;28;20554;-89
2022/06/15 13:12:05;;;;;;;7.77;6.97;;;29.80;45.10;;;;;;4983788;28;20485;-89
2022/06/15 13:14:36;;;;;;;7.87;7.07;;;29.80;45.70;;;;;;4983755;28;20407;-88
2022/06/15 13:17:15;;;;;;;6.70;6.20;;;30.00;44.40;;;;;;4980434;28;20455;-88
2022/06/15 13:19:45;;;;;;;6.87;6.37;;;30.00;44.60;;;;;;4984624;28;20441;-89
2022/06/15 13:22:27;;;;;;;7.50;6.80;;;30.00;45.10;;;;;;4983557;28;20485;-88
2022/06/15 13:25:03;;;;;;;7.60;6.60;;;29.70;42.10;;;;;;4973383;28;20650;-88
2022/06/15 13:27:35;;;;;;;6.60;6.20;;;30.30;43.30;;;;;;4982058;28;20465;-89
2022/06/15 13:30:30;;;;;;;8.73;7.50;;;30.00;42.50;;;;;;5039589;23;20500;-84
2022/06/15 13:33:00;;;;;;;7.20;6.70;;;29.70;48.50;;;;;;5092342;28;20436;-84
2022/06/15 13:35:33;;;;;;;6.30;5.80;;;30.10;46.40;;;;;;5099528;28;20518;-84
2022/06/15 13:38:16;;;;;;;7.20;6.50;;;30.10;42.80;;;;;;5075387;28;20414;-84
2022/06/15 13:40:53;;;;;;;6.50;6.03;;;30.20;45.30;;;;;;5072776;28;20449;-84
2022/06/15 13:43:20;;;;;;;6.53;6.13;;;30.30;43.60;;;;;;5074512;28;20479;-83
2022/06/15 13:45:46;;;;;;;6.57;6.00;;;;;;;;;;5075150;28;20513;-84
2022/06/15 13:48:15;;;;;;;6.73;6.23;;;30.20;42.60;;;;;;5072058;28;20469;-84
2022/06/15 13:51:11;;;;;;;6.97;6.53;;;30.60;42.90;;;;;;5054007;28;20481;-84
2022/06/15 13:54:05;;;;;;;7.03;6.33;;;29.70;43.10;;;;;;5070051;28;20438;-85
2022/06/15 13:56:48;;;;;;;7.10;6.40;;;30.60;47.90;;;;;;5071781;28;20529;-85
2022/06/15 13:59:40;;;;;;;6.57;6.17;;;30.10;47.60;;;;;;5073211;28;20415;-84